sensor_id;sensor_type;location;lat;lon;timestamp;pressure;altitude;pressure_sealevel;temperature;humidity
596;BME280;19946;49.306;11.350;2023-01-10T00:00:27;95766.94;;;1.54;100.00
596;BME280;19946;49.306;11.350;2023-01-10T00:03:34;95849.81;;;2.05;100.00
596;BME280;19946;49.306;11.350;2023-01-10T00:06:34;95793.81;;;1.74;100.00
596;BME280;19946;49.306;11.350;2023-01-10T00:09:34;95820.50;;;1.97;100.00
596;BME280;19946;49.306;11.350;2023-01-10T00:12:35;95798.66;;;1.78;100.00
596;BME280;19946;49.306;11.350;2023-01-10T00:15:54;95804.97;;;1.59;100.00
596;BME280;19946;49.306;11.350;2023-01-10T00:18:54;95799.28;;;1.54;100.00
596;BME280;19946;49.306;11.350;2023-01-10T00:21:55;95859.19;;;1.76;100.00
596;BME280;19946;49.306;11.350;2023-01-10T00:25:08;95884.81;;;2.03;100.00
596;BME280;19946;49.306;11.350;2023-01-10T00:28:08;95811.72;;;1.60;100.00
596;BME280;19946;49.306;11.350;2023-01-10T00:31:22;95824.91;;;1.80;100.00
596;BME280;19946;49.306;11.350;2023-01-10T00:34:23;95808.25;;;1.61;100.00
596;BME280;19946;49.306;11.350;2023-01-10T00:37:23;95894.31;;;2.15;100.00
596;BME280;19946;49.306;11.350;2023-01-10T00:40:23;95856.38;;;1.81;100.00
596;BME280;19946;49.306;11.350;2023-01-10T00:43:24;95914.91;;;2.12;100.00
596;BME280;19946;49.306;11.350;2023-01-10T00:46:43;95911.63;;;2.10;100.00
596;BME280;19946;49.306;11.350;2023-01-10T00:49:43;95799.19;;;1.41;100.00
596;BME280;19946;49.306;11.350;2023-01-10T00:52:44;95895.03;;;1.89;100.00
596;BME280;19946;49.306;11.350;2023-01-10T00:55:44;95892.22;;;1.94;100.00
596;BME280;19946;49.306;11.350;2023-01-10T00:58:45;95892.47;;;1.89;100.00
596;BME280;19946;49.306;11.350;2023-01-10T01:01:45;95877.97;;;1.75;100.00
596;BME280;19946;49.306;11.350;2023-01-10T01:04:45;95941.53;;;2.08;100.00
596;BME280;19946;49.306;11.350;2023-01-10T01:07:47;95942.72;;;2.17;100.00
596;BME280;19946;49.306;11.350;2023-01-10T01:10:48;95878.41;;;1.68;100.00
596;BME280;19946;49.306;11.350;2023-01-10T01:13:48;95925.38;;;2.08;100.00
596;BME280;19946;49.306;11.350;2023-01-10T01:16:49;95939.19;;;2.05;100.00
596;BME280;19946;49.306;11.350;2023-01-10T01:19:49;95880.59;;;1.74;100.00
596;BME280;19946;49.306;11.350;2023-01-10T01:22:49;95974.47;;;2.13;100.00
596;BME280;19946;49.306;11.350;2023-01-10T01:25:53;95889.53;;;1.67;100.00
596;BME280;19946;49.306;11.350;2023-01-10T01:28:54;95977.28;;;2.08;100.00
596;BME280;19946;49.306;11.350;2023-01-10T01:31:55;95924.00;;;1.74;100.00
596;BME280;19946;49.306;11.350;2023-01-10T01:34:56;95954.75;;;1.87;100.00
596;BME280;19946;49.306;11.350;2023-01-10T01:37:56;95969.63;;;1.94;100.00
596;BME280;19946;49.306;11.350;2023-01-10T01:40:56;95943.16;;;1.81;100.00
596;BME280;19946;49.306;11.350;2023-01-10T01:44:05;95970.09;;;2.01;100.00
596;BME280;19946;49.306;11.350;2023-01-10T01:47:24;95906.66;;;1.65;100.00
596;BME280;19946;49.306;11.350;2023-01-10T01:54:03;95948.53;;;1.62;100.00
596;BME280;19946;49.306;11.350;2023-01-10T01:57:10;96006.22;;;1.95;100.00
596;BME280;19946;49.306;11.350;2023-01-10T02:00:12;95932.19;;;1.51;100.00
596;BME280;19946;49.306;11.350;2023-01-10T02:03:14;96018.22;;;1.93;100.00
596;BME280;19946;49.306;11.350;2023-01-10T02:06:15;95913.38;;;1.37;100.00
596;BME280;19946;49.306;11.350;2023-01-10T02:09:23;95879.13;;;1.12;100.00
596;BME280;19946;49.306;11.350;2023-01-10T02:12:26;95954.19;;;1.52;100.00
596;BME280;19946;49.306;11.350;2023-01-10T02:15:28;95955.38;;;1.46;100.00
596;BME280;19946;49.306;11.350;2023-01-10T02:18:29;96028.53;;;1.91;100.00
596;BME280;19946;49.306;11.350;2023-01-10T02:21:36;96040.03;;;1.98;100.00
596;BME280;19946;49.306;11.350;2023-01-10T02:28:35;95907.75;;;1.17;100.00
596;BME280;19946;49.306;11.350;2023-01-10T02:32:23;96038.94;;;2.02;100.00
596;BME280;19946;49.306;11.350;2023-01-10T02:35:52;96044.75;;;1.90;100.00
596;BME280;19946;49.306;11.350;2023-01-10T02:39:04;96055.50;;;1.95;100.00
596;BME280;19946;49.306;11.350;2023-01-10T02:42:12;96047.06;;;1.95;100.00
596;BME280;19946;49.306;11.350;2023-01-10T02:45:28;96020.66;;;1.80;100.00
596;BME280;19946;49.306;11.350;2023-01-10T02:48:29;96026.41;;;1.83;100.00
596;BME280;19946;49.306;11.350;2023-01-10T02:51:30;96020.44;;;1.69;100.00
596;BME280;19946;49.306;11.350;2023-01-10T02:54:32;96000.53;;;1.60;100.00
596;BME280;19946;49.306;11.350;2023-01-10T02:57:45;96007.16;;;1.78;100.00
596;BME280;19946;49.306;11.350;2023-01-10T03:04:21;95971.06;;;1.40;100.00
596;BME280;19946;49.306;11.350;2023-01-10T03:07:42;96095.16;;;2.16;100.00
596;BME280;19946;49.306;11.350;2023-01-10T03:10:51;95963.06;;;1.30;100.00
596;BME280;19946;49.306;11.350;2023-01-10T03:13:59;96083.09;;;2.04;100.00
596;BME280;19946;49.306;11.350;2023-01-10T03:17:07;96110.22;;;2.21;100.00
596;BME280;19946;49.306;11.350;2023-01-10T03:20:08;96120.19;;;2.26;100.00
596;BME280;19946;49.306;11.350;2023-01-10T03:23:09;96048.56;;;1.83;100.00
596;BME280;19946;49.306;11.350;2023-01-10T03:26:12;96120.13;;;2.27;100.00
596;BME280;19946;49.306;11.350;2023-01-10T03:29:18;96139.53;;;2.30;100.00
596;BME280;19946;49.306;11.350;2023-01-10T03:32:24;96068.50;;;1.76;100.00
596;BME280;19946;49.306;11.350;2023-01-10T03:39:21;96143.00;;;2.29;100.00
596;BME280;19946;49.306;11.350;2023-01-10T03:42:42;96155.59;;;2.32;100.00
596;BME280;19946;49.306;11.350;2023-01-10T03:46:09;96171.94;;;2.29;100.00
596;BME280;19946;49.306;11.350;2023-01-10T03:49:12;96173.44;;;2.17;100.00
596;BME280;19946;49.306;11.350;2023-01-10T03:52:16;96145.03;;;2.08;100.00
596;BME280;19946;49.306;11.350;2023-01-10T03:55:20;96151.16;;;2.05;100.00
596;BME280;19946;49.306;11.350;2023-01-10T03:58:21;96139.63;;;1.98;100.00
596;BME280;19946;49.306;11.350;2023-01-10T04:01:22;96180.84;;;2.22;100.00
596;BME280;19946;49.306;11.350;2023-01-10T04:04:22;96174.84;;;2.07;100.00
596;BME280;19946;49.306;11.350;2023-01-10T04:07:22;96140.28;;;1.86;100.00
596;BME280;19946;49.306;11.350;2023-01-10T04:10:23;96196.09;;;2.24;100.00
596;BME280;19946;49.306;11.350;2023-01-10T04:13:26;96201.34;;;2.36;100.00
596;BME280;19946;49.306;11.350;2023-01-10T04:16:26;96124.97;;;1.86;100.00
596;BME280;19946;49.306;11.350;2023-01-10T04:19:26;96203.47;;;2.44;100.00
596;BME280;19946;49.306;11.350;2023-01-10T04:22:27;96188.13;;;2.14;100.00
596;BME280;19946;49.306;11.350;2023-01-10T04:25:27;96174.22;;;2.04;100.00
596;BME280;19946;49.306;11.350;2023-01-10T04:28:27;96197.25;;;2.18;100.00
596;BME280;19946;49.306;11.350;2023-01-10T04:31:28;96216.38;;;2.27;100.00
596;BME280;19946;49.306;11.350;2023-01-10T04:34:28;96163.34;;;1.84;100.00
596;BME280;19946;49.306;11.350;2023-01-10T04:37:28;96178.66;;;1.84;100.00
596;BME280;19946;49.306;11.350;2023-01-10T04:40:29;96236.75;;;2.12;100.00
596;BME280;19946;49.306;11.350;2023-01-10T04:43:29;96242.75;;;2.11;100.00
596;BME280;19946;49.306;11.350;2023-01-10T04:46:30;96133.25;;;1.44;100.00
596;BME280;19946;49.306;11.350;2023-01-10T04:49:31;96260.13;;;2.20;100.00
596;BME280;19946;49.306;11.350;2023-01-10T04:52:32;96191.13;;;1.75;100.00
596;BME280;19946;49.306;11.350;2023-01-10T04:55:32;96182.47;;;1.77;100.00
596;BME280;19946;49.306;11.350;2023-01-10T04:58:37;96285.25;;;2.28;100.00
596;BME280;19946;49.306;11.350;2023-01-10T05:01:37;96228.38;;;1.95;100.00
596;BME280;19946;49.306;11.350;2023-01-10T05:04:38;96187.09;;;1.71;100.00
596;BME280;19946;49.306;11.350;2023-01-10T05:07:39;96221.84;;;1.89;100.00
596;BME280;19946;49.306;11.350;2023-01-10T05:10:39;96308.16;;;2.30;100.00
596;BME280;19946;49.306;11.350;2023-01-10T05:13:40;96234.69;;;1.88;100.00
596;BME280;19946;49.306;11.350;2023-01-10T05:16:40;96309.00;;;2.30;100.00
596;BME280;19946;49.306;11.350;2023-01-10T05:19:41;96316.44;;;2.35;100.00
596;BME280;19946;49.306;11.350;2023-01-10T05:22:41;96323.34;;;2.33;100.00
596;BME280;19946;49.306;11.350;2023-01-10T05:25:41;96219.03;;;1.62;100.00
596;BME280;19946;49.306;11.350;2023-01-10T05:28:42;96282.06;;;1.93;100.00
596;BME280;19946;49.306;11.350;2023-01-10T05:31:43;96271.06;;;1.75;100.00
596;BME280;19946;49.306;11.350;2023-01-10T05:34:44;96333.13;;;2.09;100.00
596;BME280;19946;49.306;11.350;2023-01-10T05:37:44;96359.28;;;2.30;100.00
596;BME280;19946;49.306;11.350;2023-01-10T05:40:44;96296.13;;;1.84;100.00
596;BME280;19946;49.306;11.350;2023-01-10T05:43:45;96375.69;;;2.26;100.00
596;BME280;19946;49.306;11.350;2023-01-10T05:46:45;96308.06;;;1.84;100.00
596;BME280;19946;49.306;11.350;2023-01-10T05:49:45;96297.69;;;1.71;100.00
596;BME280;19946;49.306;11.350;2023-01-10T05:52:46;96392.06;;;2.22;100.00
596;BME280;19946;49.306;11.350;2023-01-10T05:55:53;96235.44;;;1.25;100.00
596;BME280;19946;49.306;11.350;2023-01-10T05:58:55;96325.44;;;1.77;100.00
596;BME280;19946;49.306;11.350;2023-01-10T06:01:56;96411.28;;;2.29;100.00
596;BME280;19946;49.306;11.350;2023-01-10T06:04:56;96415.00;;;2.23;100.00
596;BME280;19946;49.306;11.350;2023-01-10T06:07:56;96414.47;;;2.16;100.00
596;BME280;19946;49.306;11.350;2023-01-10T06:10:56;96427.00;;;2.21;100.00
596;BME280;19946;49.306;11.350;2023-01-10T06:13:57;96443.50;;;2.15;100.00
596;BME280;19946;49.306;11.350;2023-01-10T06:16:57;96346.56;;;1.64;100.00
596;BME280;19946;49.306;11.350;2023-01-10T06:19:57;96393.41;;;1.80;100.00
596;BME280;19946;49.306;11.350;2023-01-10T06:22:58;96400.16;;;1.81;100.00
596;BME280;19946;49.306;11.350;2023-01-10T06:26:01;96417.56;;;1.90;100.00
596;BME280;19946;49.306;11.350;2023-01-10T06:29:01;96484.72;;;2.25;100.00
596;BME280;19946;49.306;11.350;2023-01-10T06:32:02;96387.41;;;1.64;100.00
596;BME280;19946;49.306;11.350;2023-01-10T06:35:03;96423.72;;;1.86;100.00
596;BME280;19946;49.306;11.350;2023-01-10T06:38:04;96494.88;;;2.27;100.00
596;BME280;19946;49.306;11.350;2023-01-10T06:41:04;96497.78;;;2.19;100.00
596;BME280;19946;49.306;11.350;2023-01-10T06:44:12;96507.03;;;2.22;100.00
596;BME280;19946;49.306;11.350;2023-01-10T06:47:12;96466.97;;;1.89;100.00
596;BME280;19946;49.306;11.350;2023-01-10T06:50:13;96518.94;;;2.05;100.00
596;BME280;19946;49.306;11.350;2023-01-10T06:53:13;96538.75;;;2.17;100.00
596;BME280;19946;49.306;11.350;2023-01-10T06:56:14;96542.97;;;2.18;100.00
596;BME280;19946;49.306;11.350;2023-01-10T06:59:14;96483.78;;;1.76;100.00
596;BME280;19946;49.306;11.350;2023-01-10T07:02:14;96543.19;;;2.14;100.00
596;BME280;19946;49.306;11.350;2023-01-10T07:05:15;96536.97;;;2.02;100.00
596;BME280;19946;49.306;11.350;2023-01-10T07:08:15;96485.16;;;1.66;100.00
596;BME280;19946;49.306;11.350;2023-01-10T07:11:16;96571.88;;;2.19;100.00
596;BME280;19946;49.306;11.350;2023-01-10T07:14:16;96550.31;;;2.07;100.00
596;BME280;19946;49.306;11.350;2023-01-10T07:17:17;96535.00;;;1.90;100.00
596;BME280;19946;49.306;11.350;2023-01-10T07:20:18;96537.19;;;1.80;100.00
596;BME280;19946;49.306;11.350;2023-01-10T07:23:18;96541.16;;;1.86;100.00
596;BME280;19946;49.306;11.350;2023-01-10T07:26:19;96601.44;;;2.25;100.00
596;BME280;19946;49.306;11.350;2023-01-10T07:29:19;96542.31;;;1.80;100.00
596;BME280;19946;49.306;11.350;2023-01-10T07:32:19;96606.00;;;2.18;100.00
596;BME280;19946;49.306;11.350;2023-01-10T07:35:20;96570.56;;;1.95;100.00
596;BME280;19946;49.306;11.350;2023-01-10T07:38:20;96554.25;;;1.80;100.00
596;BME280;19946;49.306;11.350;2023-01-10T07:41:21;96576.84;;;1.88;100.00
596;BME280;19946;49.306;11.350;2023-01-10T07:44:21;96631.91;;;2.28;100.00
596;BME280;19946;49.306;11.350;2023-01-10T07:47:23;96642.97;;;2.28;100.00
596;BME280;19946;49.306;11.350;2023-01-10T07:50:24;96639.75;;;2.25;100.00
596;BME280;19946;49.306;11.350;2023-01-10T07:53:26;96674.31;;;2.32;100.00
596;BME280;19946;49.306;11.350;2023-01-10T07:56:27;96618.69;;;2.02;100.00
596;BME280;19946;49.306;11.350;2023-01-10T07:59:27;96561.72;;;1.66;100.00
596;BME280;19946;49.306;11.350;2023-01-10T08:02:27;96578.00;;;1.63;100.00
596;BME280;19946;49.306;11.350;2023-01-10T08:05:27;96681.91;;;2.33;100.00
596;BME280;19946;49.306;11.350;2023-01-10T08:08:28;96665.91;;;2.12;100.00
596;BME280;19946;49.306;11.350;2023-01-10T08:11:29;96683.44;;;2.37;100.00
596;BME280;19946;49.306;11.350;2023-01-10T08:14:29;96603.94;;;1.73;100.00
596;BME280;19946;49.306;11.350;2023-01-10T08:17:35;96672.19;;;2.05;100.00
596;BME280;19946;49.306;11.350;2023-01-10T08:20:35;96702.28;;;2.35;100.00
596;BME280;19946;49.306;11.350;2023-01-10T08:23:35;96677.84;;;2.12;100.00
596;BME280;19946;49.306;11.350;2023-01-10T08:26:36;96702.75;;;2.26;100.00
596;BME280;19946;49.306;11.350;2023-01-10T08:29:36;96715.06;;;2.35;100.00
596;BME280;19946;49.306;11.350;2023-01-10T08:32:36;96713.03;;;2.41;100.00
596;BME280;19946;49.306;11.350;2023-01-10T08:35:38;96687.75;;;2.18;100.00
596;BME280;19946;49.306;11.350;2023-01-10T08:38:39;96718.66;;;2.31;100.00
596;BME280;19946;49.306;11.350;2023-01-10T08:41:39;96645.09;;;1.84;100.00
596;BME280;19946;49.306;11.350;2023-01-10T08:44:40;96686.13;;;1.98;100.00
596;BME280;19946;49.306;11.350;2023-01-10T08:47:40;96728.06;;;2.30;100.00
596;BME280;19946;49.306;11.350;2023-01-10T08:50:41;96705.69;;;2.16;100.00
596;BME280;19946;49.306;11.350;2023-01-10T08:53:41;96676.81;;;1.97;100.00
596;BME280;19946;49.306;11.350;2023-01-10T08:56:41;96742.28;;;2.53;100.00
596;BME280;19946;49.306;11.350;2023-01-10T08:59:42;96762.91;;;2.67;100.00
596;BME280;19946;49.306;11.350;2023-01-10T09:02:42;96753.28;;;2.72;100.00
596;BME280;19946;49.306;11.350;2023-01-10T09:05:42;96704.34;;;2.45;100.00
596;BME280;19946;49.306;11.350;2023-01-10T09:08:43;96764.56;;;2.68;100.00
596;BME280;19946;49.306;11.350;2023-01-10T09:11:43;96670.25;;;2.10;100.00
596;BME280;19946;49.306;11.350;2023-01-10T09:14:44;96774.88;;;2.67;100.00
596;BME280;19946;49.306;11.350;2023-01-10T09:17:44;96758.78;;;2.65;100.00
596;BME280;19946;49.306;11.350;2023-01-10T09:20:44;96731.38;;;2.49;100.00
596;BME280;19946;49.306;11.350;2023-01-10T09:23:45;96773.81;;;2.71;100.00
596;BME280;19946;49.306;11.350;2023-01-10T09:26:46;96811.38;;;2.87;100.00
596;BME280;19946;49.306;11.350;2023-01-10T09:29:46;96808.56;;;2.75;100.00
596;BME280;19946;49.306;11.350;2023-01-10T09:32:53;96797.31;;;2.60;100.00
596;BME280;19946;49.306;11.350;2023-01-10T09:35:56;96829.41;;;2.84;100.00
596;BME280;19946;49.306;11.350;2023-01-10T09:38:57;96825.06;;;2.86;100.00
596;BME280;19946;49.306;11.350;2023-01-10T09:42:23;96848.69;;;2.91;100.00
596;BME280;19946;49.306;11.350;2023-01-10T09:45:34;96844.91;;;2.81;100.00
596;BME280;19946;49.306;11.350;2023-01-10T09:48:48;96846.72;;;2.97;100.00
596;BME280;19946;49.306;11.350;2023-01-10T09:51:52;96766.50;;;2.46;100.00
596;BME280;19946;49.306;11.350;2023-01-10T09:54:56;96772.13;;;2.52;100.00
596;BME280;19946;49.306;11.350;2023-01-10T09:58:00;96832.44;;;3.10;100.00
596;BME280;19946;49.306;11.350;2023-01-10T10:01:05;96802.47;;;2.94;100.00
596;BME280;19946;49.306;11.350;2023-01-10T10:04:24;96691.25;;;2.34;100.00
596;BME280;19946;49.306;11.350;2023-01-10T10:07:24;96814.09;;;3.19;100.00
596;BME280;19946;49.306;11.350;2023-01-10T10:10:37;96834.47;;;3.03;100.00
596;BME280;19946;49.306;11.350;2023-01-10T10:13:50;96841.91;;;3.25;100.00
596;BME280;19946;49.306;11.350;2023-01-10T10:17:08;96779.91;;;2.85;100.00
596;BME280;19946;49.306;11.350;2023-01-10T10:26:47;96798.34;;;3.09;100.00
596;BME280;19946;49.306;11.350;2023-01-10T10:33:43;96810.25;;;3.10;100.00
596;BME280;19946;49.306;11.350;2023-01-10T10:36:55;96833.94;;;3.31;100.00
596;BME280;19946;49.306;11.350;2023-01-10T10:40:00;96796.41;;;2.97;100.00
596;BME280;19946;49.306;11.350;2023-01-10T10:43:12;96852.03;;;3.11;100.00
596;BME280;19946;49.306;11.350;2023-01-10T10:46:15;96835.75;;;3.12;100.00
596;BME280;19946;49.306;11.350;2023-01-10T10:49:42;96857.97;;;3.11;100.00
596;BME280;19946;49.306;11.350;2023-01-10T10:53:21;96867.88;;;3.17;100.00
596;BME280;19946;49.306;11.350;2023-01-10T10:56:23;96853.28;;;3.19;100.00
596;BME280;19946;49.306;11.350;2023-01-10T10:59:25;96801.00;;;2.90;100.00
596;BME280;19946;49.306;11.350;2023-01-10T11:02:38;96794.63;;;2.63;100.00
596;BME280;19946;49.306;11.350;2023-01-10T11:05:42;96792.72;;;2.68;100.00
596;BME280;19946;49.306;11.350;2023-01-10T11:08:45;96856.81;;;3.00;100.00
596;BME280;19946;49.306;11.350;2023-01-10T11:11:48;96853.50;;;2.98;100.00
596;BME280;19946;49.306;11.350;2023-01-10T11:14:51;96871.66;;;3.27;100.00
596;BME280;19946;49.306;11.350;2023-01-10T11:18:04;96812.56;;;2.98;100.00
596;BME280;19946;49.306;11.350;2023-01-10T11:21:07;96782.81;;;2.61;100.00
596;BME280;19946;49.306;11.350;2023-01-10T11:27:45;96784.84;;;2.54;100.00
596;BME280;19946;49.306;11.350;2023-01-10T11:30:48;96737.63;;;2.44;100.00
596;BME280;19946;49.306;11.350;2023-01-10T11:33:49;96806.78;;;2.77;100.00
596;BME280;19946;49.306;11.350;2023-01-10T11:36:58;96811.22;;;2.90;100.00
596;BME280;19946;49.306;11.350;2023-01-10T11:40:19;96878.44;;;3.46;100.00
596;BME280;19946;49.306;11.350;2023-01-10T11:46:30;96852.09;;;3.44;100.00
596;BME280;19946;49.306;11.350;2023-01-10T11:49:38;96851.72;;;3.34;100.00
596;BME280;19946;49.306;11.350;2023-01-10T11:52:43;96870.81;;;3.27;100.00
596;BME280;19946;49.306;11.350;2023-01-10T11:55:46;96875.66;;;3.33;100.00
596;BME280;19946;49.306;11.350;2023-01-10T11:58:47;96825.22;;;3.01;100.00
596;BME280;19946;49.306;11.350;2023-01-10T12:01:55;96877.75;;;3.59;100.00
596;BME280;19946;49.306;11.350;2023-01-10T12:05:00;96808.59;;;3.09;100.00
596;BME280;19946;49.306;11.350;2023-01-10T12:08:04;96790.97;;;3.03;100.00
596;BME280;19946;49.306;11.350;2023-01-10T12:14:18;96802.56;;;3.60;100.00
596;BME280;19946;49.306;11.350;2023-01-10T12:17:30;96788.75;;;3.47;100.00
596;BME280;19946;49.306;11.350;2023-01-10T12:20:40;96844.72;;;3.71;100.00
596;BME280;19946;49.306;11.350;2023-01-10T12:23:45;96875.81;;;3.80;100.00
596;BME280;19946;49.306;11.350;2023-01-10T12:26:47;96825.59;;;3.27;100.00
596;BME280;19946;49.306;11.350;2023-01-10T12:30:00;96846.22;;;3.24;100.00
596;BME280;19946;49.306;11.350;2023-01-10T12:33:05;96819.28;;;3.17;100.00
596;BME280;19946;49.306;11.350;2023-01-10T12:36:34;96888.31;;;3.53;100.00
596;BME280;19946;49.306;11.350;2023-01-10T12:39:40;96875.13;;;3.26;100.00
596;BME280;19946;49.306;11.350;2023-01-10T12:43:04;96834.31;;;2.89;100.00
596;BME280;19946;49.306;11.350;2023-01-10T12:46:43;96891.31;;;3.27;100.00
596;BME280;19946;49.306;11.350;2023-01-10T12:49:57;96721.97;;;2.15;100.00
596;BME280;19946;49.306;11.350;2023-01-10T12:53:02;96887.78;;;3.12;100.00
596;BME280;19946;49.306;11.350;2023-01-10T12:56:12;96896.69;;;3.04;100.00
596;BME280;19946;49.306;11.350;2023-01-10T12:59:21;96793.25;;;2.20;100.00
596;BME280;19946;49.306;11.350;2023-01-10T13:02:26;96881.06;;;2.74;100.00
596;BME280;19946;49.306;11.350;2023-01-10T13:05:29;96900.69;;;2.73;100.00
596;BME280;19946;49.306;11.350;2023-01-10T13:08:33;96851.25;;;2.55;100.00
596;BME280;19946;49.306;11.350;2023-01-10T13:11:41;96721.56;;;1.87;100.00
596;BME280;19946;49.306;11.350;2023-01-10T13:14:50;96901.59;;;2.91;100.00
596;BME280;19946;49.306;11.350;2023-01-10T13:17:58;96793.19;;;2.22;100.00
596;BME280;19946;49.306;11.350;2023-01-10T13:21:07;96834.13;;;2.39;100.00
596;BME280;19946;49.306;11.350;2023-01-10T13:24:25;96916.69;;;2.96;100.00
596;BME280;19946;49.306;11.350;2023-01-10T13:27:30;96762.34;;;2.07;100.00
596;BME280;19946;49.306;11.350;2023-01-10T13:30:34;96897.06;;;2.96;100.00
596;BME280;19946;49.306;11.350;2023-01-10T13:36:51;96855.72;;;2.69;100.00
596;BME280;19946;49.306;11.350;2023-01-10T13:39:59;96793.81;;;2.27;100.00
596;BME280;19946;49.306;11.350;2023-01-10T13:43:29;96909.03;;;2.96;100.00
596;BME280;19946;49.306;11.350;2023-01-10T13:46:44;96857.91;;;2.60;100.00
596;BME280;19946;49.306;11.350;2023-01-10T13:49:45;96834.75;;;2.44;100.00
596;BME280;19946;49.306;11.350;2023-01-10T13:52:45;96841.28;;;2.49;100.00
596;BME280;19946;49.306;11.350;2023-01-10T13:58:52;96799.19;;;2.20;100.00
596;BME280;19946;49.306;11.350;2023-01-10T14:02:41;96846.28;;;2.52;100.00
596;BME280;19946;49.306;11.350;2023-01-10T14:05:47;96922.59;;;2.98;100.00
596;BME280;19946;49.306;11.350;2023-01-10T14:08:50;96912.09;;;2.85;100.00
596;BME280;19946;49.306;11.350;2023-01-10T14:11:58;96868.41;;;2.71;100.00
596;BME280;19946;49.306;11.350;2023-01-10T14:15:25;96901.84;;;2.85;100.00
596;BME280;19946;49.306;11.350;2023-01-10T14:18:32;96906.06;;;2.86;100.00
596;BME280;19946;49.306;11.350;2023-01-10T14:21:39;96826.44;;;2.39;100.00
596;BME280;19946;49.306;11.350;2023-01-10T14:24:42;96925.28;;;2.94;100.00
596;BME280;19946;49.306;11.350;2023-01-10T14:27:46;96909.53;;;2.85;100.00
596;BME280;19946;49.306;11.350;2023-01-10T14:30:59;96780.72;;;1.97;100.00
596;BME280;19946;49.306;11.350;2023-01-10T14:34:00;96943.13;;;2.96;100.00
596;BME280;19946;49.306;11.350;2023-01-10T14:37:28;96938.22;;;2.91;100.00
596;BME280;19946;49.306;11.350;2023-01-10T14:47:45;96906.72;;;2.72;100.00
596;BME280;19946;49.306;11.350;2023-01-10T14:50:47;96854.31;;;2.45;100.00
596;BME280;19946;49.306;11.350;2023-01-10T14:57:00;96933.25;;;2.88;100.00
596;BME280;19946;49.306;11.350;2023-01-10T15:00:27;96931.66;;;2.86;100.00
596;BME280;19946;49.306;11.350;2023-01-10T15:03:28;96942.41;;;2.92;100.00
596;BME280;19946;49.306;11.350;2023-01-10T15:06:49;96938.06;;;2.94;100.00
596;BME280;19946;49.306;11.350;2023-01-10T15:09:52;96943.75;;;2.82;100.00
596;BME280;19946;49.306;11.350;2023-01-10T15:16:18;96933.41;;;2.67;100.00
596;BME280;19946;49.306;11.350;2023-01-10T15:19:30;96935.25;;;2.63;100.00
596;BME280;19946;49.306;11.350;2023-01-10T15:22:34;96916.84;;;2.38;100.00
596;BME280;19946;49.306;11.350;2023-01-10T15:25:36;96924.81;;;2.49;100.00
596;BME280;19946;49.306;11.350;2023-01-10T15:28:38;96820.25;;;1.88;100.00
596;BME280;19946;49.306;11.350;2023-01-10T15:31:39;96892.66;;;2.26;100.00
596;BME280;19946;49.306;11.350;2023-01-10T15:34:41;96853.81;;;1.99;100.00
596;BME280;19946;49.306;11.350;2023-01-10T15:37:49;96919.22;;;2.41;100.00
596;BME280;19946;49.306;11.350;2023-01-10T15:40:59;96913.41;;;2.18;100.00
596;BME280;19946;49.306;11.350;2023-01-10T15:44:42;96924.00;;;2.30;100.00
596;BME280;19946;49.306;11.350;2023-01-10T15:47:50;96913.00;;;2.28;100.00
596;BME280;19946;49.306;11.350;2023-01-10T15:50:54;96912.03;;;2.30;100.00
596;BME280;19946;49.306;11.350;2023-01-10T15:57:26;96877.28;;;2.07;100.00
596;BME280;19946;49.306;11.350;2023-01-10T16:00:28;96891.47;;;2.14;100.00
596;BME280;19946;49.306;11.350;2023-01-10T16:03:37;96871.28;;;2.08;100.00
596;BME280;19946;49.306;11.350;2023-01-10T16:06:38;96899.75;;;2.19;100.00
596;BME280;19946;49.306;11.350;2023-01-10T16:09:39;96781.31;;;1.45;100.00
596;BME280;19946;49.306;11.350;2023-01-10T16:12:41;96850.75;;;1.72;100.00
596;BME280;19946;49.306;11.350;2023-01-10T16:16:02;96796.06;;;1.39;100.00
596;BME280;19946;49.306;11.350;2023-01-10T16:19:04;96876.84;;;1.79;100.00
596;BME280;19946;49.306;11.350;2023-01-10T16:22:04;96903.56;;;1.91;100.00
596;BME280;19946;49.306;11.350;2023-01-10T16:25:05;96893.81;;;1.80;100.00
596;BME280;19946;49.306;11.350;2023-01-10T16:28:10;96858.94;;;1.60;100.00
596;BME280;19946;49.306;11.350;2023-01-10T16:31:11;96900.72;;;1.78;100.00
596;BME280;19946;49.306;11.350;2023-01-10T16:34:13;96865.56;;;1.64;100.00
596;BME280;19946;49.306;11.350;2023-01-10T16:37:13;96831.44;;;1.46;100.00
596;BME280;19946;49.306;11.350;2023-01-10T16:40:32;96885.94;;;1.84;100.00
596;BME280;19946;49.306;11.350;2023-01-10T16:43:33;96830.72;;;1.43;100.00
596;BME280;19946;49.306;11.350;2023-01-10T16:46:34;96876.06;;;1.77;100.00
596;BME280;19946;49.306;11.350;2023-01-10T16:49:35;96892.66;;;1.87;100.00
596;BME280;19946;49.306;11.350;2023-01-10T16:52:36;96867.81;;;1.72;100.00
596;BME280;19946;49.306;11.350;2023-01-10T16:55:48;96889.34;;;1.85;100.00
596;BME280;19946;49.306;11.350;2023-01-10T16:58:50;96899.72;;;1.82;100.00
596;BME280;19946;49.306;11.350;2023-01-10T17:01:55;96858.53;;;1.69;100.00
596;BME280;19946;49.306;11.350;2023-01-10T17:04:56;96875.25;;;1.76;100.00
596;BME280;19946;49.306;11.350;2023-01-10T17:07:58;96846.25;;;1.59;100.00
596;BME280;19946;49.306;11.350;2023-01-10T17:11:00;96882.44;;;1.87;100.00
596;BME280;19946;49.306;11.350;2023-01-10T17:14:01;96890.94;;;1.88;100.00
596;BME280;19946;49.306;11.350;2023-01-10T17:17:03;96883.28;;;1.88;100.00
596;BME280;19946;49.306;11.350;2023-01-10T17:20:04;96867.13;;;1.87;100.00
596;BME280;19946;49.306;11.350;2023-01-10T17:23:05;96788.81;;;1.30;100.00
596;BME280;19946;49.306;11.350;2023-01-10T17:26:05;96879.88;;;1.87;100.00
596;BME280;19946;49.306;11.350;2023-01-10T17:29:05;96792.78;;;1.35;100.00